Terminal Aerodrome Forecast
Issued by NWS Paducah, KY

Home | Current Version | Previous Version | Text Only | Print | Product List | Glossary On
Versions: 1 2 3 4 5 6 7 8 9 10 11 12 13 14 15 16 17 18 19 20
991
FTUS43 KPAH 201002 AAA
TAFEVV
TAF AMD
KEVV 201002Z 2010/2106 VRB03KT 1/4SM FG VV001
     FM201500 14005KT 4SM BR BKN010
     FM201600 15007KT P6SM SCT200=

USA.gov is the U.S. government's official web portal to all federal, state and local government web resources and services.